sensor_id;sensor_type;location;lat;lon;timestamp;temperature;humidity
21085;DHT22;72320;50.082;20.000;2023-12-20T00:00:19;21.90;27.00
21085;DHT22;72320;50.082;20.000;2023-12-20T00:02:45;21.90;27.00
21085;DHT22;72320;50.082;20.000;2023-12-20T00:05:15;21.90;27.00
21085;DHT22;72320;50.082;20.000;2023-12-20T00:07:41;21.70;27.10
21085;DHT22;72320;50.082;20.000;2023-12-20T00:10:07;21.50;27.40
21085;DHT22;72320;50.082;20.000;2023-12-20T00:12:33;21.30;27.60
21085;DHT22;72320;50.082;20.000;2023-12-20T00:14:59;21.20;27.80
21085;DHT22;72320;50.082;20.000;2023-12-20T00:17:26;21.10;27.90
21085;DHT22;72320;50.082;20.000;2023-12-20T00:19:52;20.90;28.00
21085;DHT22;72320;50.082;20.000;2023-12-20T00:22:17;20.80;28.40
21085;DHT22;72320;50.082;20.000;2023-12-20T00:24:43;20.90;28.30
21085;DHT22;72320;50.082;20.000;2023-12-20T00:27:09;20.80;28.40
21085;DHT22;72320;50.082;20.000;2023-12-20T00:29:35;20.80;28.50
21085;DHT22;72320;50.082;20.000;2023-12-20T00:32:01;21.00;28.30
21085;DHT22;72320;50.082;20.000;2023-12-20T00:34:27;21.10;28.20
21085;DHT22;72320;50.082;20.000;2023-12-20T00:36:53;21.20;28.20
21085;DHT22;72320;50.082;20.000;2023-12-20T00:39:20;21.30;28.20
21085;DHT22;72320;50.082;20.000;2023-12-20T00:41:46;21.40;28.40
21085;DHT22;72320;50.082;20.000;2023-12-20T00:44:18;21.50;28.20
21085;DHT22;72320;50.082;20.000;2023-12-20T00:46:47;21.60;27.70
21085;DHT22;72320;50.082;20.000;2023-12-20T00:49:16;21.70;27.60
21085;DHT22;72320;50.082;20.000;2023-12-20T00:51:44;21.80;27.60
21085;DHT22;72320;50.082;20.000;2023-12-20T00:54:12;21.90;27.50
21085;DHT22;72320;50.082;20.000;2023-12-20T00:56:39;21.90;27.60
21085;DHT22;72320;50.082;20.000;2023-12-20T00:59:05;22.00;27.40
21085;DHT22;72320;50.082;20.000;2023-12-20T01:01:33;22.00;27.30
21085;DHT22;72320;50.082;20.000;2023-12-20T01:03:59;22.00;27.40
21085;DHT22;72320;50.082;20.000;2023-12-20T01:06:25;21.90;27.30
21085;DHT22;72320;50.082;20.000;2023-12-20T01:08:51;21.80;27.40
21085;DHT22;72320;50.082;20.000;2023-12-20T01:11:17;21.60;27.50
21085;DHT22;72320;50.082;20.000;2023-12-20T01:13:43;21.70;27.40
21085;DHT22;72320;50.082;20.000;2023-12-20T01:16:12;21.80;27.50
21085;DHT22;72320;50.082;20.000;2023-12-20T01:18:38;21.80;27.30
21085;DHT22;72320;50.082;20.000;2023-12-20T01:21:04;21.80;27.30
21085;DHT22;72320;50.082;20.000;2023-12-20T01:23:31;21.70;27.30
21085;DHT22;72320;50.082;20.000;2023-12-20T01:25:58;21.80;27.10
21085;DHT22;72320;50.082;20.000;2023-12-20T01:28:28;21.90;27.00
21085;DHT22;72320;50.082;20.000;2023-12-20T01:30:53;21.80;26.80
21085;DHT22;72320;50.082;20.000;2023-12-20T01:33:19;21.80;26.70
21085;DHT22;72320;50.082;20.000;2023-12-20T01:35:45;21.80;26.80
21085;DHT22;72320;50.082;20.000;2023-12-20T01:38:11;21.80;26.60
21085;DHT22;72320;50.082;20.000;2023-12-20T01:40:37;21.80;26.70
21085;DHT22;72320;50.082;20.000;2023-12-20T01:43:08;21.90;26.80
21085;DHT22;72320;50.082;20.000;2023-12-20T01:45:38;21.90;26.90
21085;DHT22;72320;50.082;20.000;2023-12-20T01:48:04;22.00;27.30
21085;DHT22;72320;50.082;20.000;2023-12-20T01:50:32;21.90;27.10
21085;DHT22;72320;50.082;20.000;2023-12-20T01:53:03;21.80;27.10
21085;DHT22;72320;50.082;20.000;2023-12-20T01:55:34;21.70;27.10
21085;DHT22;72320;50.082;20.000;2023-12-20T01:58:08;21.50;27.20
21085;DHT22;72320;50.082;20.000;2023-12-20T02:00:45;21.20;27.30
21085;DHT22;72320;50.082;20.000;2023-12-20T02:03:23;20.90;27.20
21085;DHT22;72320;50.082;20.000;2023-12-20T02:05:59;20.60;27.80
21085;DHT22;72320;50.082;20.000;2023-12-20T02:08:39;20.30;28.10
21085;DHT22;72320;50.082;20.000;2023-12-20T02:11:06;20.30;28.20
21085;DHT22;72320;50.082;20.000;2023-12-20T02:13:32;20.20;28.30
21085;DHT22;72320;50.082;20.000;2023-12-20T02:15:58;20.10;28.40
21085;DHT22;72320;50.082;20.000;2023-12-20T02:18:24;20.10;28.50
21085;DHT22;72320;50.082;20.000;2023-12-20T02:20:50;20.10;28.50
21085;DHT22;72320;50.082;20.000;2023-12-20T02:23:16;20.10;28.30
21085;DHT22;72320;50.082;20.000;2023-12-20T02:25:43;20.20;28.30
21085;DHT22;72320;50.082;20.000;2023-12-20T02:28:09;20.10;28.30
21085;DHT22;72320;50.082;20.000;2023-12-20T02:30:35;20.30;28.30
21085;DHT22;72320;50.082;20.000;2023-12-20T02:33:01;20.30;28.10
21085;DHT22;72320;50.082;20.000;2023-12-20T02:35:37;20.40;28.10
21085;DHT22;72320;50.082;20.000;2023-12-20T02:38:02;20.50;28.10
21085;DHT22;72320;50.082;20.000;2023-12-20T02:40:29;20.70;27.90
21085;DHT22;72320;50.082;20.000;2023-12-20T02:42:55;20.90;27.70
21085;DHT22;72320;50.082;20.000;2023-12-20T02:45:20;20.90;27.80
21085;DHT22;72320;50.082;20.000;2023-12-20T02:47:46;20.90;27.60
21085;DHT22;72320;50.082;20.000;2023-12-20T02:50:12;21.00;27.60
21085;DHT22;72320;50.082;20.000;2023-12-20T02:52:38;21.00;27.60
21085;DHT22;72320;50.082;20.000;2023-12-20T02:55:04;21.10;27.60
21085;DHT22;72320;50.082;20.000;2023-12-20T02:57:30;21.10;27.50
21085;DHT22;72320;50.082;20.000;2023-12-20T02:59:57;21.10;27.40
21085;DHT22;72320;50.082;20.000;2023-12-20T03:02:23;21.10;28.00
21085;DHT22;72320;50.082;20.000;2023-12-20T03:04:49;21.10;27.30
21085;DHT22;72320;50.082;20.000;2023-12-20T03:07:15;21.00;27.10
21085;DHT22;72320;50.082;20.000;2023-12-20T03:09:41;20.80;27.00
21085;DHT22;72320;50.082;20.000;2023-12-20T03:12:07;20.70;27.10
21085;DHT22;72320;50.082;20.000;2023-12-20T03:14:34;20.60;27.10
21085;DHT22;72320;50.082;20.000;2023-12-20T03:17:00;20.50;27.30
21085;DHT22;72320;50.082;20.000;2023-12-20T03:19:27;20.50;27.30
21085;DHT22;72320;50.082;20.000;2023-12-20T03:21:54;20.40;27.40
21085;DHT22;72320;50.082;20.000;2023-12-20T03:24:21;20.10;27.60
21085;DHT22;72320;50.082;20.000;2023-12-20T03:26:47;20.00;27.80
21085;DHT22;72320;50.082;20.000;2023-12-20T03:29:16;20.00;27.90
21085;DHT22;72320;50.082;20.000;2023-12-20T03:31:43;19.90;28.00
21085;DHT22;72320;50.082;20.000;2023-12-20T03:34:09;19.80;27.90
21085;DHT22;72320;50.082;20.000;2023-12-20T03:36:36;19.60;28.20
21085;DHT22;72320;50.082;20.000;2023-12-20T03:39:02;19.70;28.20
21085;DHT22;72320;50.082;20.000;2023-12-20T03:41:32;19.70;28.10
21085;DHT22;72320;50.082;20.000;2023-12-20T03:44:01;19.90;28.00
21085;DHT22;72320;50.082;20.000;2023-12-20T03:46:27;19.90;28.00
21085;DHT22;72320;50.082;20.000;2023-12-20T03:48:53;20.00;27.90
21085;DHT22;72320;50.082;20.000;2023-12-20T03:51:19;20.20;27.50
21085;DHT22;72320;50.082;20.000;2023-12-20T03:53:45;20.50;27.30
21085;DHT22;72320;50.082;20.000;2023-12-20T03:56:13;20.70;27.20
21085;DHT22;72320;50.082;20.000;2023-12-20T03:58:40;21.00;27.00
21085;DHT22;72320;50.082;20.000;2023-12-20T04:54:08;20.90;27.40
21085;DHT22;72320;50.082;20.000;2023-12-20T04:56:35;20.60;28.10
21085;DHT22;72320;50.082;20.000;2023-12-20T04:59:01;20.30;28.50
21085;DHT22;72320;50.082;20.000;2023-12-20T05:01:27;20.10;29.10
21085;DHT22;72320;50.082;20.000;2023-12-20T05:03:53;20.00;29.50
21085;DHT22;72320;50.082;20.000;2023-12-20T05:06:19;19.80;30.00
21085;DHT22;72320;50.082;20.000;2023-12-20T05:08:45;19.80;30.40
21085;DHT22;72320;50.082;20.000;2023-12-20T05:11:11;19.80;30.90
21085;DHT22;72320;50.082;20.000;2023-12-20T05:13:39;19.70;31.60
21085;DHT22;72320;50.082;20.000;2023-12-20T05:16:07;19.80;32.10
21085;DHT22;72320;50.082;20.000;2023-12-20T05:18:35;19.80;32.80
21085;DHT22;72320;50.082;20.000;2023-12-20T05:21:01;19.80;33.10
21085;DHT22;72320;50.082;20.000;2023-12-20T05:23:29;19.70;33.70
21085;DHT22;72320;50.082;20.000;2023-12-20T05:25:55;19.60;34.20
21085;DHT22;72320;50.082;20.000;2023-12-20T05:28:22;19.60;35.10
21085;DHT22;72320;50.082;20.000;2023-12-20T05:30:48;19.60;35.40
21085;DHT22;72320;50.082;20.000;2023-12-20T05:33:14;19.30;36.50
21085;DHT22;72320;50.082;20.000;2023-12-20T05:35:40;19.40;37.40
21085;DHT22;72320;50.082;20.000;2023-12-20T05:38:07;19.50;37.70
21085;DHT22;72320;50.082;20.000;2023-12-20T05:40:32;19.50;38.30
21085;DHT22;72320;50.082;20.000;2023-12-20T05:42:58;19.50;38.80
21085;DHT22;72320;50.082;20.000;2023-12-20T05:45:24;19.40;39.00
21085;DHT22;72320;50.082;20.000;2023-12-20T05:47:50;19.40;39.40
21085;DHT22;72320;50.082;20.000;2023-12-20T05:50:16;19.50;40.00
21085;DHT22;72320;50.082;20.000;2023-12-20T05:52:42;19.20;40.40
21085;DHT22;72320;50.082;20.000;2023-12-20T05:55:08;19.40;40.70
21085;DHT22;72320;50.082;20.000;2023-12-20T05:57:34;19.40;40.10
21085;DHT22;72320;50.082;20.000;2023-12-20T06:00:00;19.20;41.40
21085;DHT22;72320;50.082;20.000;2023-12-20T06:02:26;18.90;41.90
21085;DHT22;72320;50.082;20.000;2023-12-20T06:04:52;18.80;42.30
21085;DHT22;72320;50.082;20.000;2023-12-20T06:07:18;18.70;42.90
21085;DHT22;72320;50.082;20.000;2023-12-20T06:09:44;18.60;43.20
21085;DHT22;72320;50.082;20.000;2023-12-20T06:12:10;18.50;43.20
21085;DHT22;72320;50.082;20.000;2023-12-20T06:14:36;18.40;43.30
21085;DHT22;72320;50.082;20.000;2023-12-20T06:17:02;18.50;43.60
21085;DHT22;72320;50.082;20.000;2023-12-20T06:19:29;18.40;43.40
21085;DHT22;72320;50.082;20.000;2023-12-20T06:21:55;18.40;43.80
21085;DHT22;72320;50.082;20.000;2023-12-20T06:24:20;18.20;44.00
21085;DHT22;72320;50.082;20.000;2023-12-20T06:26:47;18.40;44.30
21085;DHT22;72320;50.082;20.000;2023-12-20T06:29:14;18.40;44.30
21085;DHT22;72320;50.082;20.000;2023-12-20T06:31:40;18.20;44.30
21085;DHT22;72320;50.082;20.000;2023-12-20T06:34:06;18.20;44.80
21085;DHT22;72320;50.082;20.000;2023-12-20T06:36:32;18.30;45.10
21085;DHT22;72320;50.082;20.000;2023-12-20T06:39:01;18.30;45.40
21085;DHT22;72320;50.082;20.000;2023-12-20T06:41:27;18.40;45.40
21085;DHT22;72320;50.082;20.000;2023-12-20T06:43:56;18.40;45.00
21085;DHT22;72320;50.082;20.000;2023-12-20T06:46:23;18.30;45.10
21085;DHT22;72320;50.082;20.000;2023-12-20T06:48:50;18.20;45.80
21085;DHT22;72320;50.082;20.000;2023-12-20T06:51:16;18.00;46.20
21085;DHT22;72320;50.082;20.000;2023-12-20T06:53:45;17.80;46.50
21085;DHT22;72320;50.082;20.000;2023-12-20T06:56:11;17.80;46.70
21085;DHT22;72320;50.082;20.000;2023-12-20T06:58:43;17.80;46.80
21085;DHT22;72320;50.082;20.000;2023-12-20T07:01:13;17.80;47.00
21085;DHT22;72320;50.082;20.000;2023-12-20T07:03:40;17.70;47.30
21085;DHT22;72320;50.082;20.000;2023-12-20T07:06:06;17.80;47.10
21085;DHT22;72320;50.082;20.000;2023-12-20T07:08:33;17.80;47.30
21085;DHT22;72320;50.082;20.000;2023-12-20T07:10:59;17.60;47.50
21085;DHT22;72320;50.082;20.000;2023-12-20T07:13:25;17.60;47.70
21085;DHT22;72320;50.082;20.000;2023-12-20T07:15:51;17.70;48.10
21085;DHT22;72320;50.082;20.000;2023-12-20T07:18:17;17.70;47.90
21085;DHT22;72320;50.082;20.000;2023-12-20T07:21:00;17.70;47.90
21085;DHT22;72320;50.082;20.000;2023-12-20T07:23:26;17.60;48.00
21085;DHT22;72320;50.082;20.000;2023-12-20T07:25:55;17.60;48.10
21085;DHT22;72320;50.082;20.000;2023-12-20T07:28:23;17.50;47.90
21085;DHT22;72320;50.082;20.000;2023-12-20T07:30:50;17.50;48.20
21085;DHT22;72320;50.082;20.000;2023-12-20T07:33:17;17.40;48.60
21085;DHT22;72320;50.082;20.000;2023-12-20T07:35:43;17.50;48.30
21085;DHT22;72320;50.082;20.000;2023-12-20T07:38:10;17.50;48.70
21085;DHT22;72320;50.082;20.000;2023-12-20T07:40:37;17.30;48.90
21085;DHT22;72320;50.082;20.000;2023-12-20T07:43:04;17.30;49.20
21085;DHT22;72320;50.082;20.000;2023-12-20T07:45:30;17.20;49.10
21085;DHT22;72320;50.082;20.000;2023-12-20T07:47:56;17.00;49.60
21085;DHT22;72320;50.082;20.000;2023-12-20T07:50:22;16.80;50.30
21085;DHT22;72320;50.082;20.000;2023-12-20T07:52:48;16.50;50.60
21085;DHT22;72320;50.082;20.000;2023-12-20T07:55:14;16.40;51.10
21085;DHT22;72320;50.082;20.000;2023-12-20T07:57:40;16.40;50.90
21085;DHT22;72320;50.082;20.000;2023-12-20T08:00:06;16.30;51.30
21085;DHT22;72320;50.082;20.000;2023-12-20T08:02:32;16.00;51.90
21085;DHT22;72320;50.082;20.000;2023-12-20T08:04:58;15.90;52.00
21085;DHT22;72320;50.082;20.000;2023-12-20T08:07:24;16.20;51.50
21085;DHT22;72320;50.082;20.000;2023-12-20T08:09:50;16.00;51.80
21085;DHT22;72320;50.082;20.000;2023-12-20T08:12:17;15.90;52.10
21085;DHT22;72320;50.082;20.000;2023-12-20T08:14:43;15.90;52.10
21085;DHT22;72320;50.082;20.000;2023-12-20T08:17:09;16.10;52.30
21085;DHT22;72320;50.082;20.000;2023-12-20T08:19:35;16.00;51.90
21085;DHT22;72320;50.082;20.000;2023-12-20T08:22:02;16.20;51.80
21085;DHT22;72320;50.082;20.000;2023-12-20T08:24:28;16.20;51.70
21085;DHT22;72320;50.082;20.000;2023-12-20T08:26:57;16.10;51.90
21085;DHT22;72320;50.082;20.000;2023-12-20T08:29:25;16.30;51.50
21085;DHT22;72320;50.082;20.000;2023-12-20T08:31:55;16.50;51.20
21085;DHT22;72320;50.082;20.000;2023-12-20T08:34:21;16.70;51.20
21085;DHT22;72320;50.082;20.000;2023-12-20T08:36:50;16.70;50.70
21085;DHT22;72320;50.082;20.000;2023-12-20T08:39:16;16.70;50.70
21085;DHT22;72320;50.082;20.000;2023-12-20T08:41:43;16.60;50.80
21085;DHT22;72320;50.082;20.000;2023-12-20T08:44:10;16.60;51.20
21085;DHT22;72320;50.082;20.000;2023-12-20T08:46:36;16.80;50.70
21085;DHT22;72320;50.082;20.000;2023-12-20T08:49:02;16.80;50.70
21085;DHT22;72320;50.082;20.000;2023-12-20T08:51:28;16.60;50.80
21085;DHT22;72320;50.082;20.000;2023-12-20T08:53:54;16.70;51.40
21085;DHT22;72320;50.082;20.000;2023-12-20T08:56:20;16.80;51.00
21085;DHT22;72320;50.082;20.000;2023-12-20T08:58:46;16.80;50.80
21085;DHT22;72320;50.082;20.000;2023-12-20T09:01:13;16.80;50.80
21085;DHT22;72320;50.082;20.000;2023-12-20T09:03:40;16.60;51.00
21085;DHT22;72320;50.082;20.000;2023-12-20T09:06:06;16.70;51.00
21085;DHT22;72320;50.082;20.000;2023-12-20T09:08:32;16.50;51.10
21085;DHT22;72320;50.082;20.000;2023-12-20T09:10:59;16.30;52.00
21085;DHT22;72320;50.082;20.000;2023-12-20T09:13:26;16.40;51.90
21085;DHT22;72320;50.082;20.000;2023-12-20T09:15:57;16.50;51.80
21085;DHT22;72320;50.082;20.000;2023-12-20T09:18:24;16.80;51.30
21085;DHT22;72320;50.082;20.000;2023-12-20T09:20:50;16.80;50.80
21085;DHT22;72320;50.082;20.000;2023-12-20T09:23:16;16.30;51.30
21085;DHT22;72320;50.082;20.000;2023-12-20T09:25:43;16.20;52.10
21085;DHT22;72320;50.082;20.000;2023-12-20T09:28:09;16.30;51.90
21085;DHT22;72320;50.082;20.000;2023-12-20T09:30:36;16.40;51.50
21085;DHT22;72320;50.082;20.000;2023-12-20T09:33:05;16.30;51.90
21085;DHT22;72320;50.082;20.000;2023-12-20T09:35:32;16.20;51.80
21085;DHT22;72320;50.082;20.000;2023-12-20T09:37:58;16.20;52.00
21085;DHT22;72320;50.082;20.000;2023-12-20T09:40:25;16.10;52.20
21085;DHT22;72320;50.082;20.000;2023-12-20T09:43:04;15.80;53.00
21085;DHT22;72320;50.082;20.000;2023-12-20T09:45:39;16.30;52.60
21085;DHT22;72320;50.082;20.000;2023-12-20T09:48:06;16.30;51.80
21085;DHT22;72320;50.082;20.000;2023-12-20T09:50:36;16.20;52.40
21085;DHT22;72320;50.082;20.000;2023-12-20T09:53:02;16.10;52.30
21085;DHT22;72320;50.082;20.000;2023-12-20T09:55:30;16.30;52.40
21085;DHT22;72320;50.082;20.000;2023-12-20T09:57:59;16.40;52.40
21085;DHT22;72320;50.082;20.000;2023-12-20T10:00:25;16.30;53.30
21085;DHT22;72320;50.082;20.000;2023-12-20T10:02:58;16.50;52.00
21085;DHT22;72320;50.082;20.000;2023-12-20T10:05:27;16.20;52.30
21085;DHT22;72320;50.082;20.000;2023-12-20T10:07:57;16.10;52.50
21085;DHT22;72320;50.082;20.000;2023-12-20T10:10:26;16.10;52.60
21085;DHT22;72320;50.082;20.000;2023-12-20T10:13:05;16.00;53.00
21085;DHT22;72320;50.082;20.000;2023-12-20T10:15:34;15.90;53.30
21085;DHT22;72320;50.082;20.000;2023-12-20T10:18:01;15.70;53.60
21085;DHT22;72320;50.082;20.000;2023-12-20T10:20:29;15.90;53.20
21085;DHT22;72320;50.082;20.000;2023-12-20T10:22:56;15.90;53.00
21085;DHT22;72320;50.082;20.000;2023-12-20T10:25:24;15.80;53.30
21085;DHT22;72320;50.082;20.000;2023-12-20T10:28:08;16.00;52.60
21085;DHT22;72320;50.082;20.000;2023-12-20T10:30:45;15.80;52.80
21085;DHT22;72320;50.082;20.000;2023-12-20T10:33:11;15.60;53.00
21085;DHT22;72320;50.082;20.000;2023-12-20T10:35:38;15.60;53.40
21085;DHT22;72320;50.082;20.000;2023-12-20T10:38:06;15.60;53.30
21085;DHT22;72320;50.082;20.000;2023-12-20T10:40:36;15.60;53.30
21085;DHT22;72320;50.082;20.000;2023-12-20T10:43:03;15.80;53.10
21085;DHT22;72320;50.082;20.000;2023-12-20T10:45:30;15.80;53.20
21085;DHT22;72320;50.082;20.000;2023-12-20T10:47:57;15.90;52.90
21085;DHT22;72320;50.082;20.000;2023-12-20T10:50:26;15.80;53.00
21085;DHT22;72320;50.082;20.000;2023-12-20T10:52:54;15.90;53.00
21085;DHT22;72320;50.082;20.000;2023-12-20T10:55:24;15.80;53.10
21085;DHT22;72320;50.082;20.000;2023-12-20T10:57:51;15.60;53.50
21085;DHT22;72320;50.082;20.000;2023-12-20T11:00:18;15.90;53.20
21085;DHT22;72320;50.082;20.000;2023-12-20T11:02:46;16.00;52.80
21085;DHT22;72320;50.082;20.000;2023-12-20T11:10:48;16.00;52.50
21085;DHT22;72320;50.082;20.000;2023-12-20T11:13:32;16.30;52.50
21085;DHT22;72320;50.082;20.000;2023-12-20T11:16:06;16.40;52.00
21085;DHT22;72320;50.082;20.000;2023-12-20T11:18:33;16.00;52.60
21085;DHT22;72320;50.082;20.000;2023-12-20T11:21:02;16.10;52.60
21085;DHT22;72320;50.082;20.000;2023-12-20T11:23:30;16.20;52.50
21085;DHT22;72320;50.082;20.000;2023-12-20T11:26:01;15.90;53.20
21085;DHT22;72320;50.082;20.000;2023-12-20T11:28:28;15.50;54.20
21085;DHT22;72320;50.082;20.000;2023-12-20T11:30:56;15.50;54.80
21085;DHT22;72320;50.082;20.000;2023-12-20T11:33:26;15.60;54.40
21085;DHT22;72320;50.082;20.000;2023-12-20T11:35:57;15.50;54.50
21085;DHT22;72320;50.082;20.000;2023-12-20T11:38:35;15.60;54.70
21085;DHT22;72320;50.082;20.000;2023-12-20T11:41:19;15.60;54.50
21085;DHT22;72320;50.082;20.000;2023-12-20T11:43:55;15.70;54.30
21085;DHT22;72320;50.082;20.000;2023-12-20T11:46:21;15.70;54.50
21085;DHT22;72320;50.082;20.000;2023-12-20T11:48:48;16.00;54.00
21085;DHT22;72320;50.082;20.000;2023-12-20T11:51:14;15.80;54.00
21085;DHT22;72320;50.082;20.000;2023-12-20T11:53:40;15.60;54.40
21085;DHT22;72320;50.082;20.000;2023-12-20T11:56:09;16.00;54.10
21085;DHT22;72320;50.082;20.000;2023-12-20T11:58:36;16.10;53.80
21085;DHT22;72320;50.082;20.000;2023-12-20T12:01:02;16.00;53.80
21085;DHT22;72320;50.082;20.000;2023-12-20T12:03:30;16.10;53.50
21085;DHT22;72320;50.082;20.000;2023-12-20T12:05:56;15.80;54.00
21085;DHT22;72320;50.082;20.000;2023-12-20T12:08:23;15.70;54.10
21085;DHT22;72320;50.082;20.000;2023-12-20T12:10:49;16.00;53.80
21085;DHT22;72320;50.082;20.000;2023-12-20T12:13:15;16.10;53.60
21085;DHT22;72320;50.082;20.000;2023-12-20T12:15:41;16.00;53.50
21085;DHT22;72320;50.082;20.000;2023-12-20T12:18:08;16.10;53.50
21085;DHT22;72320;50.082;20.000;2023-12-20T12:20:36;16.50;52.80
21085;DHT22;72320;50.082;20.000;2023-12-20T12:23:03;16.30;52.80
21085;DHT22;72320;50.082;20.000;2023-12-20T12:25:32;16.50;52.50
21085;DHT22;72320;50.082;20.000;2023-12-20T12:28:01;16.50;52.20
21085;DHT22;72320;50.082;20.000;2023-12-20T12:30:28;16.50;52.20
21085;DHT22;72320;50.082;20.000;2023-12-20T12:32:55;16.40;52.30
21085;DHT22;72320;50.082;20.000;2023-12-20T12:35:22;16.40;52.20
21085;DHT22;72320;50.082;20.000;2023-12-20T12:40:36;16.50;51.70
21085;DHT22;72320;50.082;20.000;2023-12-20T12:43:02;16.50;51.80
21085;DHT22;72320;50.082;20.000;2023-12-20T12:45:29;16.80;51.30
21085;DHT22;72320;50.082;20.000;2023-12-20T12:47:55;16.60;51.30
21085;DHT22;72320;50.082;20.000;2023-12-20T12:50:21;16.40;52.00
21085;DHT22;72320;50.082;20.000;2023-12-20T12:52:47;16.40;51.80
21085;DHT22;72320;50.082;20.000;2023-12-20T12:55:13;16.40;52.00
21085;DHT22;72320;50.082;20.000;2023-12-20T12:57:39;16.40;52.00
21085;DHT22;72320;50.082;20.000;2023-12-20T13:00:06;16.40;52.10
21085;DHT22;72320;50.082;20.000;2023-12-20T13:02:34;16.30;52.30
21085;DHT22;72320;50.082;20.000;2023-12-20T13:05:00;16.60;52.00
21085;DHT22;72320;50.082;20.000;2023-12-20T13:07:28;16.40;52.20
21085;DHT22;72320;50.082;20.000;2023-12-20T13:09:54;16.30;52.30
21085;DHT22;72320;50.082;20.000;2023-12-20T13:12:20;16.40;52.30
21085;DHT22;72320;50.082;20.000;2023-12-20T13:14:47;16.50;52.10
21085;DHT22;72320;50.082;20.000;2023-12-20T13:17:13;16.60;51.60
21085;DHT22;72320;50.082;20.000;2023-12-20T13:19:39;16.60;51.50
21085;DHT22;72320;50.082;20.000;2023-12-20T13:22:05;16.60;51.50
21085;DHT22;72320;50.082;20.000;2023-12-20T13:24:31;16.60;51.60
21085;DHT22;72320;50.082;20.000;2023-12-20T13:26:57;16.90;51.00
21085;DHT22;72320;50.082;20.000;2023-12-20T13:29:23;16.60;51.30
21085;DHT22;72320;50.082;20.000;2023-12-20T13:31:52;16.60;51.40
21085;DHT22;72320;50.082;20.000;2023-12-20T13:34:19;16.40;51.90
21085;DHT22;72320;50.082;20.000;2023-12-20T13:36:45;16.50;51.60
21085;DHT22;72320;50.082;20.000;2023-12-20T13:39:13;16.60;51.30
21085;DHT22;72320;50.082;20.000;2023-12-20T13:41:39;16.60;51.10
21085;DHT22;72320;50.082;20.000;2023-12-20T13:44:05;16.60;51.10
21085;DHT22;72320;50.082;20.000;2023-12-20T13:46:31;16.90;50.70
21085;DHT22;72320;50.082;20.000;2023-12-20T13:48:58;17.20;50.20
21085;DHT22;72320;50.082;20.000;2023-12-20T13:51:23;17.20;50.00
21085;DHT22;72320;50.082;20.000;2023-12-20T13:53:49;17.30;49.80
21085;DHT22;72320;50.082;20.000;2023-12-20T13:56:16;17.20;49.90
21085;DHT22;72320;50.082;20.000;2023-12-20T13:58:42;17.10;50.00
21085;DHT22;72320;50.082;20.000;2023-12-20T14:01:09;17.20;49.70
21085;DHT22;72320;50.082;20.000;2023-12-20T14:03:37;17.00;49.90
21085;DHT22;72320;50.082;20.000;2023-12-20T14:06:03;17.30;49.70
21085;DHT22;72320;50.082;20.000;2023-12-20T14:08:29;17.30;49.40
21085;DHT22;72320;50.082;20.000;2023-12-20T14:10:55;17.40;49.10
21085;DHT22;72320;50.082;20.000;2023-12-20T14:13:21;17.40;48.90
21085;DHT22;72320;50.082;20.000;2023-12-20T14:15:47;17.50;48.60
21085;DHT22;72320;50.082;20.000;2023-12-20T14:18:14;17.40;48.80
21085;DHT22;72320;50.082;20.000;2023-12-20T14:20:40;17.30;49.00
21085;DHT22;72320;50.082;20.000;2023-12-20T14:23:08;17.20;49.20
21085;DHT22;72320;50.082;20.000;2023-12-20T14:25:37;17.30;49.10
21085;DHT22;72320;50.082;20.000;2023-12-20T14:28:04;17.30;49.10
21085;DHT22;72320;50.082;20.000;2023-12-20T14:30:30;17.50;48.50
21085;DHT22;72320;50.082;20.000;2023-12-20T14:32:56;17.60;48.10
21085;DHT22;72320;50.082;20.000;2023-12-20T14:35:22;17.40;48.40
21085;DHT22;72320;50.082;20.000;2023-12-20T14:37:48;17.40;48.60
21085;DHT22;72320;50.082;20.000;2023-12-20T14:40:15;17.20;48.80
21085;DHT22;72320;50.082;20.000;2023-12-20T14:42:45;17.20;49.00
21085;DHT22;72320;50.082;20.000;2023-12-20T14:45:12;17.20;49.10
21085;DHT22;72320;50.082;20.000;2023-12-20T14:47:39;17.30;48.90
21085;DHT22;72320;50.082;20.000;2023-12-20T14:50:05;17.40;48.70
21085;DHT22;72320;50.082;20.000;2023-12-20T14:52:33;17.40;48.60
21085;DHT22;72320;50.082;20.000;2023-12-20T14:55:00;17.40;48.50
21085;DHT22;72320;50.082;20.000;2023-12-20T14:57:30;17.60;48.10
21085;DHT22;72320;50.082;20.000;2023-12-20T14:59:56;17.80;47.80
21085;DHT22;72320;50.082;20.000;2023-12-20T15:02:22;17.80;47.60
21085;DHT22;72320;50.082;20.000;2023-12-20T15:04:48;17.90;47.60
21085;DHT22;72320;50.082;20.000;2023-12-20T15:07:16;17.90;47.50
21085;DHT22;72320;50.082;20.000;2023-12-20T15:09:42;18.00;47.40
21085;DHT22;72320;50.082;20.000;2023-12-20T15:12:13;17.80;47.60
21085;DHT22;72320;50.082;20.000;2023-12-20T15:14:39;18.10;47.10
21085;DHT22;72320;50.082;20.000;2023-12-20T15:17:05;18.10;47.00
21085;DHT22;72320;50.082;20.000;2023-12-20T15:19:31;18.10;47.10
21085;DHT22;72320;50.082;20.000;2023-12-20T15:21:57;17.90;47.10
21085;DHT22;72320;50.082;20.000;2023-12-20T15:24:25;18.00;47.10
21085;DHT22;72320;50.082;20.000;2023-12-20T15:27:03;17.80;47.10
21085;DHT22;72320;50.082;20.000;2023-12-20T15:29:33;17.60;47.60
21085;DHT22;72320;50.082;20.000;2023-12-20T15:31:59;17.50;47.80
21085;DHT22;72320;50.082;20.000;2023-12-20T15:34:25;17.40;48.00
21085;DHT22;72320;50.082;20.000;2023-12-20T15:36:51;17.00;48.60
21085;DHT22;72320;50.082;20.000;2023-12-20T15:39:17;16.70;49.30
21085;DHT22;72320;50.082;20.000;2023-12-20T15:41:43;16.40;50.10
21085;DHT22;72320;50.082;20.000;2023-12-20T15:44:09;16.30;50.00
21085;DHT22;72320;50.082;20.000;2023-12-20T15:46:35;16.10;50.70
21085;DHT22;72320;50.082;20.000;2023-12-20T15:49:01;15.80;51.30
21085;DHT22;72320;50.082;20.000;2023-12-20T15:51:27;15.70;51.40
21085;DHT22;72320;50.082;20.000;2023-12-20T15:53:53;15.50;52.00
21085;DHT22;72320;50.082;20.000;2023-12-20T15:56:19;15.60;51.80
21085;DHT22;72320;50.082;20.000;2023-12-20T15:58:45;15.40;51.90
21085;DHT22;72320;50.082;20.000;2023-12-20T16:01:17;15.60;51.90
21085;DHT22;72320;50.082;20.000;2023-12-20T16:03:43;15.50;51.90
21085;DHT22;72320;50.082;20.000;2023-12-20T16:06:09;15.50;52.00
21085;DHT22;72320;50.082;20.000;2023-12-20T16:08:36;15.40;52.20
21085;DHT22;72320;50.082;20.000;2023-12-20T16:11:02;15.40;52.30
21085;DHT22;72320;50.082;20.000;2023-12-20T16:13:28;15.30;52.60
21085;DHT22;72320;50.082;20.000;2023-12-20T16:15:55;15.30;52.60